Time;durP1;ratioP1;P1;durP2;ratioP2;P2;SDS_P1;SDS_P2;PMS_P1;PMS_P2;Temp;Humidity;BMP_temperature;BMP_pressure;BME280_temperature;BME280_humidity;BME280_pressure;Samples;Min_cycle;Max_cycle;Signal;HPM_P1;HPM_P2
2023/01/15 00:00:04;;;;;;;4.03;3.90;;;;;;;8.96;100.00;95601.91;5091377;28;20207;-60
2023/01/15 00:02:30;;;;;;;2.87;2.77;;;;;;;8.92;100.00;95581.72;5093227;28;20260;-63
2023/01/15 00:05:01;;;;;;;3.47;3.37;;;;;;;8.96;100.00;95575.00;5083772;28;20324;-61
2023/01/15 00:07:26;;;;;;;3.90;3.60;;;;;;;9.02;100.00;95582.66;5073408;28;20223;-61
2023/01/15 00:09:52;;;;;;;4.03;3.83;;;;;;;8.97;100.00;95572.13;5073456;28;20223;-61
2023/01/15 00:12:17;;;;;;;5.13;4.93;;;;;;;8.99;100.00;95561.44;5073103;28;20190;-59
2023/01/15 00:14:43;;;;;;;4.37;4.17;;;;;;;8.99;100.00;95562.22;5080562;28;20169;-61
2023/01/15 00:17:08;;;;;;;4.13;3.83;;;;;;;8.96;100.00;95551.47;5092929;28;20251;-61
2023/01/15 00:19:33;;;;;;;5.50;5.07;;;;;;;8.96;100.00;95559.31;5090845;28;20189;-61
2023/01/15 00:21:59;;;;;;;5.33;4.93;;;;;;;8.97;100.00;95553.06;5074585;28;20200;-61
2023/01/15 00:29:53;;;;;;;3.83;3.63;;;;;;;9.00;100.00;95537.66;5073650;28;20716;-63
2023/01/15 00:32:19;;;;;;;4.63;4.43;;;;;;;8.98;100.00;95531.88;5072765;28;20228;-61
2023/01/15 00:34:44;;;;;;;4.27;4.07;;;;;;;9.05;100.00;95531.69;5073240;28;20201;-58
2023/01/15 00:37:09;;;;;;;4.70;4.50;;;;;;;8.97;100.00;95538.16;5072570;28;20173;-61
2023/01/15 00:39:35;;;;;;;5.47;5.27;;;;;;;9.05;100.00;95534.31;5081297;28;20169;-59
2023/01/15 00:42:01;;;;;;;4.80;4.50;;;;;;;9.09;100.00;95520.50;5092615;28;20740;-60
2023/01/15 00:44:26;;;;;;;4.90;4.70;;;;;;;9.09;100.00;95517.09;5092957;28;20248;-61
2023/01/15 00:46:51;;;;;;;4.10;3.90;;;;;;;9.07;100.00;95509.53;5083326;28;20180;-58
2023/01/15 00:49:17;;;;;;;4.07;3.97;;;;;;;9.10;100.00;95505.59;5078385;28;20184;-61
2023/01/15 00:51:42;;;;;;;5.80;5.50;;;;;;;9.10;100.00;95503.00;5075929;28;20212;-60
2023/01/15 00:54:08;;;;;;;5.50;5.23;;;;;;;9.20;100.00;95497.84;5072282;28;20544;-61
2023/01/15 00:56:33;;;;;;;3.50;3.40;;;;;;;9.15;100.00;95490.75;5080608;28;20187;-62
2023/01/15 00:59:03;;;;;;;3.03;2.93;;;;;;;9.16;100.00;95497.56;5075505;28;20186;-63
2023/01/15 01:01:29;;;;;;;4.73;4.33;;;;;;;9.23;100.00;95479.06;5090138;28;20739;-63
2023/01/15 01:03:54;;;;;;;4.07;3.87;;;;;;;9.27;100.00;95480.13;5095607;28;20279;-62
2023/01/15 01:06:20;;;;;;;3.90;3.80;;;;;;;9.29;100.00;95464.19;5096466;28;20537;-61
2023/01/15 01:08:46;;;;;;;2.93;2.80;;;;;;;9.26;100.00;95470.69;5094981;28;20196;-61
2023/01/15 01:11:14;;;;;;;3.93;3.73;;;;;;;9.32;100.00;95471.53;5085053;28;20165;-62
2023/01/15 01:13:40;;;;;;;3.00;2.90;;;;;;;9.29;100.00;95466.81;5092336;28;20550;-62
2023/01/15 01:16:36;;;;;;;3.80;3.60;;;;;;;9.36;100.00;95456.94;5076324;28;20161;-62
2023/01/15 01:19:15;;;;;;;3.17;3.07;;;;;;;9.40;100.00;95464.03;5060096;28;20200;-62
2023/01/15 01:21:42;;;;;;;3.87;3.77;;;;;;;9.34;100.00;95457.19;5065883;28;20238;-63
2023/01/15 01:24:10;;;;;;;5.13;4.93;;;;;;;9.35;100.00;95463.19;5095983;28;20161;-62
2023/01/15 01:26:35;;;;;;;3.60;3.40;;;;;;;9.40;100.00;95464.03;5096264;28;20187;-63
2023/01/15 01:29:03;;;;;;;3.20;3.03;;;;;;;9.35;100.00;95457.97;5093294;28;20677;-63
2023/01/15 01:31:28;;;;;;;3.07;2.80;;;;;;;9.40;100.00;95464.03;5075721;28;20287;-62
2023/01/15 01:33:56;;;;;;;2.50;2.40;;;;;;;9.37;100.00;95456.66;5076124;28;20177;-62
2023/01/15 01:36:27;;;;;;;2.10;2.10;;;;;;;9.37;100.00;95463.72;5075841;28;20182;-61
2023/01/15 01:38:53;;;;;;;2.50;2.40;;;;;;;9.42;100.00;95476.81;5076631;28;20576;-61
2023/01/15 01:41:19;;;;;;;2.27;2.17;;;;;;;9.48;100.00;95478.44;5096506;28;20215;-62
2023/01/15 01:43:54;;;;;;;2.30;2.30;;;;;;;9.51;100.00;95468.28;5096186;28;20567;-61
2023/01/15 01:46:20;;;;;;;2.60;2.50;;;;;;;9.54;100.00;95467.75;5096220;28;20161;-61
2023/01/15 01:48:49;;;;;;;2.53;2.43;;;;;;;9.57;100.00;95453.41;5096145;28;20184;-63
2023/01/15 01:51:17;;;;;;;2.77;2.67;;;;;;;9.55;100.00;95447.63;5075273;28;20185;-61
2023/01/15 01:53:43;;;;;;;3.13;2.90;;;;;;;9.54;100.00;95453.91;5075733;28;20170;-61
2023/01/15 01:56:10;;;;;;;3.43;3.33;;;;;;;9.54;100.00;95440.81;5077641;28;20630;-61
2023/01/15 01:58:36;;;;;;;4.13;4.03;;;;;;;9.50;100.00;95437.13;5096147;28;20180;-62
2023/01/15 02:01:03;;;;;;;4.73;4.53;;;;;;;9.55;100.00;95443.19;5084240;28;20229;-62
2023/01/15 02:03:34;;;;;;;4.53;4.33;;;;;;;9.54;100.00;95435.59;5090820;28;20213;-62
2023/01/15 02:06:02;;;;;;;4.17;4.07;;;;;;;9.52;100.00;95433.25;5060728;28;20238;-61
2023/01/15 02:08:28;;;;;;;4.87;4.67;;;;;;;9.56;100.00;95426.47;5095858;28;20161;-61
2023/01/15 02:10:55;;;;;;;4.47;4.30;;;;;;;9.58;100.00;95423.59;5084688;28;20182;-61
2023/01/15 02:13:31;;;;;;;4.83;4.63;;;;;;;9.59;100.00;95427.78;5089468;28;20200;-61
2023/01/15 02:16:27;;;;;;;3.67;3.47;;;;;;;9.59;100.00;95419.91;5076825;28;20229;-61
2023/01/15 02:19:04;;;;;;;3.77;3.57;;;;;;;9.51;100.00;95410.75;5086622;28;20193;-62
2023/01/15 02:21:51;;;;;;;3.53;3.43;;;;;;;9.54;100.00;95406.81;5092758;28;20215;-62
2023/01/15 02:24:29;;;;;;;2.87;2.77;;;;;;;9.62;100.00;95413.41;5075175;28;20739;-61
2023/01/15 02:27:06;;;;;;;2.90;2.80;;;;;;;9.68;100.00;95405.34;5085602;28;20200;-61
2023/01/15 02:29:37;;;;;;;2.80;2.70;;;;;;;9.66;100.00;95411.84;5095550;28;20169;-62
2023/01/15 02:32:09;;;;;;;2.93;2.83;;;;;;;9.59;100.00;95412.06;5088757;28;20696;-62
2023/01/15 02:34:39;;;;;;;2.70;2.60;;;;;;;9.62;100.00;95398.50;5075262;28;20201;-61
2023/01/15 02:37:09;;;;;;;3.20;3.10;;;;;;;9.49;100.00;95401.56;5075104;28;20610;-62
2023/01/15 02:39:39;;;;;;;2.53;2.47;;;;;;;9.55;100.00;95401.34;5076321;28;20166;-61
2023/01/15 02:42:08;;;;;;;3.20;3.10;;;;;;;9.55;100.00;95390.09;5088321;28;20205;-62
2023/01/15 02:44:39;;;;;;;2.83;2.73;;;;;;;9.55;100.00;95396.13;5074885;28;20245;-62
2023/01/15 02:47:07;;;;;;;2.90;2.80;;;;;;;9.56;100.00;95397.69;5074758;28;20181;-62
2023/01/15 02:49:33;;;;;;;2.40;2.30;;;;;;;9.61;100.00;95402.16;5075359;28;20185;-61
2023/01/15 02:52:25;;;;;;;2.63;2.53;;;;;;;9.68;100.00;95397.50;5094154;28;20257;-62
2023/01/15 02:54:59;;;;;;;3.80;3.60;;;;;;;9.68;100.00;95396.69;5093098;28;20275;-63
2023/01/15 02:57:29;;;;;;;2.83;2.73;;;;;;;9.62;100.00;95395.88;5090031;28;20250;-62
2023/01/15 02:59:57;;;;;;;3.43;3.33;;;;;;;9.66;100.00;95401.38;5100976;23;20247;-61
2023/01/15 03:02:28;;;;;;;3.40;3.30;;;;;;;9.72;100.00;95389.91;5066535;28;20201;-62
2023/01/15 03:04:57;;;;;;;4.20;4.10;;;;;;;9.71;100.00;95390.94;5073969;28;20252;-63
2023/01/15 03:07:35;;;;;;;3.00;2.90;;;;;;;9.65;100.00;95390.13;5074378;28;20170;-62
2023/01/15 03:10:03;;;;;;;3.50;3.40;;;;;;;9.67;100.00;95387.28;5074587;28;20243;-62
2023/01/15 03:13:06;;;;;;;4.17;4.07;;;;;;;9.64;100.00;95390.41;5074029;28;20239;-63
2023/01/15 03:18:30;;;;;;;3.40;3.30;;;;;;;9.60;100.00;95383.06;5074159;28;20744;-62
2023/01/15 03:21:01;;;;;;;4.30;4.10;;;;;;;9.63;100.00;95388.84;5073861;28;20632;-62
2023/01/15 03:23:28;;;;;;;3.83;3.73;;;;;;;9.63;100.00;95375.75;5074133;28;20208;-62
2023/01/15 03:25:54;;;;;;;3.73;3.63;;;;;;;9.67;100.00;95369.75;5073180;28;20170;-63
2023/01/15 03:28:25;;;;;;;6.10;5.87;;;;;;;9.59;100.00;95373.63;5056184;28;20672;-59
2023/01/15 03:30:50;;;;;;;5.13;4.93;;;;;;;9.59;100.00;95363.16;5073763;28;20204;-61
2023/01/15 03:33:17;;;;;;;6.77;6.50;;;;;;;9.66;100.00;95362.94;5072999;28;20696;-60
2023/01/15 03:35:45;;;;;;;6.63;6.23;;;;;;;9.66;100.00;95362.16;5073360;28;20177;-62
2023/01/15 03:38:18;;;;;;;6.47;6.23;;;;;;;9.68;100.00;95362.69;5073576;28;20283;-62
2023/01/15 03:40:58;;;;;;;6.87;6.57;;;;;;;9.66;100.00;95364.75;5072564;28;20276;-62
2023/01/15 03:43:49;;;;;;;4.20;4.00;;;;;;;9.60;100.00;95361.34;5073046;28;20205;-62
2023/01/15 03:46:23;;;;;;;4.40;4.30;;;;;;;9.64;100.00;95343.31;5067746;28;20189;-62
2023/01/15 03:49:15;;;;;;;4.80;4.60;;;;;;;9.68;100.00;95353.00;5054775;28;20195;-63
2023/01/15 03:51:51;;;;;;;3.93;3.83;;;;;;;9.62;100.00;95358.47;5066766;28;20319;-62
2023/01/15 03:54:27;;;;;;;4.83;4.63;;;;;;;9.55;100.00;95362.09;5073061;28;20184;-63
2023/01/15 03:57:00;;;;;;;5.03;4.83;;;;;;;9.52;100.00;95354.78;5072606;28;20212;-62
2023/01/15 03:59:36;;;;;;;6.23;6.03;;;;;;;9.55;100.00;95343.00;5070756;28;20290;-62
2023/01/15 04:02:07;;;;;;;5.90;5.60;;;;;;;9.64;100.00;95346.69;5072869;28;20283;-62
2023/01/15 04:04:33;;;;;;;6.20;6.00;;;;;;;9.60;100.00;95351.66;5073134;28;20264;-62
2023/01/15 04:07:01;;;;;;;6.27;5.87;;;;;;;9.59;100.00;95351.91;5072808;28;20213;-62
2023/01/15 04:09:27;;;;;;;6.43;6.20;;;;;;;9.59;100.00;95344.06;5073017;28;20169;-60
2023/01/15 04:11:52;;;;;;;6.07;5.87;;;;;;;9.63;100.00;95333.91;5072403;28;20208;-61
2023/01/15 04:14:18;;;;;;;6.17;5.97;;;;;;;9.64;100.00;95340.72;5073151;28;20209;-61
2023/01/15 04:16:44;;;;;;;6.67;6.37;;;;;;;9.64;100.00;95322.41;5072489;28;20268;-61
2023/01/15 04:19:09;;;;;;;7.13;6.80;;;;;;;9.73;100.00;95333.94;5072651;28;20170;-61
2023/01/15 04:21:34;;;;;;;6.40;6.20;;;;;;;9.71;100.00;95331.56;5072513;28;20201;-61
2023/01/15 04:24:00;;;;;;;6.33;6.07;;;;;;;9.66;100.00;95322.91;5064970;28;20202;-64
2023/01/15 04:26:26;;;;;;;6.37;6.07;;;;;;;9.73;100.00;95318.22;5072192;28;20186;-61
2023/01/15 04:28:51;;;;;;;6.40;6.10;;;;;;;9.64;100.00;95306.69;5072442;28;20208;-63
2023/01/15 04:31:17;;;;;;;6.10;5.80;;;;;;;9.59;100.00;95313.47;5072791;28;20177;-61
2023/01/15 04:33:43;;;;;;;6.23;6.03;;;;;;;9.59;100.00;95313.47;5072452;28;20613;-60
2023/01/15 04:36:09;;;;;;;6.07;5.87;;;;;;;9.60;100.00;95320.28;5072379;28;20179;-61
2023/01/15 04:38:36;;;;;;;6.23;6.00;;;;;;;9.68;100.00;95311.16;5071993;28;20200;-60
2023/01/15 04:46:31;;;;;;;6.27;6.07;;;;;;;9.59;100.00;95318.69;5072638;28;20200;-62
2023/01/15 04:48:57;;;;;;;6.33;6.03;;;;;;;9.66;100.00;95309.81;5071765;28;20193;-62
2023/01/15 04:51:23;;;;;;;4.33;4.23;;;;;;;9.63;100.00;95313.75;5072065;28;20289;-62
2023/01/15 04:53:48;;;;;;;5.37;5.17;;;;;;;9.67;100.00;95314.81;5072553;28;20177;-62
2023/01/15 04:56:14;;;;;;;5.03;4.83;;;;;;;9.71;100.00;95309.84;5071826;28;20192;-63
2023/01/15 04:58:39;;;;;;;6.10;5.80;;;;;;;9.76;100.00;95310.66;5070115;28;20713;-63
2023/01/15 05:01:16;;;;;;;5.10;4.90;;;;;;;9.84;100.00;95304.13;5072230;28;20250;-62
2023/01/15 05:03:42;;;;;;;5.43;5.23;;;;;;;9.75;100.00;95295.97;5071232;28;20197;-63
2023/01/15 05:06:09;;;;;;;5.30;5.10;;;;;;;9.72;100.00;95295.72;5071697;28;20169;-62
2023/01/15 05:08:34;;;;;;;4.80;4.60;;;;;;;9.75;100.00;95308.31;5072438;28;20173;-62
2023/01/15 05:11:05;;;;;;;4.30;4.10;;;;;;;9.78;100.00;95300.72;5072572;28;20643;-62
2023/01/15 05:13:32;;;;;;;4.10;3.90;;;;;;;9.85;100.00;95303.09;5072138;28;20201;-62
2023/01/15 05:16:13;;;;;;;3.77;3.67;;;;;;;9.87;100.00;95301.78;5054154;28;20200;-62
2023/01/15 05:18:39;;;;;;;4.03;3.83;;;;;;;9.87;100.00;95301.00;5072277;28;20165;-63
2023/01/15 05:21:05;;;;;;;3.63;3.53;;;;;;;9.87;100.00;95299.16;5072104;28;20528;-61
2023/01/15 05:23:31;;;;;;;3.80;3.70;;;;;;;9.88;100.00;95302.56;5071686;28;20209;-61
2023/01/15 05:25:56;;;;;;;4.10;3.90;;;;;;;9.90;100.00;95311.75;5072083;28;20172;-61
2023/01/15 05:28:21;;;;;;;4.83;4.63;;;;;;;9.87;100.00;95314.88;5072070;28;20238;-61
2023/01/15 05:30:47;;;;;;;3.53;3.40;;;;;;;9.88;100.00;95328.75;5071974;28;20511;-60
2023/01/15 05:33:12;;;;;;;4.17;4.07;;;;;;;9.89;100.00;95352.03;5071919;28;20202;-61
2023/01/15 05:35:38;;;;;;;5.43;5.23;;;;;;;9.80;100.00;95371.13;5072133;28;20170;-61
2023/01/15 05:38:05;;;;;;;7.67;7.37;;;;;;;9.43;100.00;95360.72;5072010;28;20201;-62
2023/01/15 05:40:31;;;;;;;14.63;13.93;;;;;;;8.29;100.00;95361.97;5071995;28;20184;-62
2023/01/15 05:42:56;;;;;;;6.60;6.30;;;;;;;8.06;100.00;95372.72;5071568;28;20201;-62
2023/01/15 05:45:22;;;;;;;4.83;4.63;;;;;;;7.69;100.00;95387.41;5071842;28;20208;-62
2023/01/15 05:47:47;;;;;;;9.70;9.23;;;;;;;7.38;100.00;95383.63;5071653;28;21087;-61
2023/01/15 05:50:13;;;;;;;20.50;18.83;;;;;;;7.23;100.00;95392.03;5074105;28;20180;-60
2023/01/15 05:52:38;;;;;;;3.90;3.70;;;;;;;7.27;100.00;95382.69;5074958;28;20325;-60
2023/01/15 05:55:04;;;;;;;4.17;4.07;;;;;;;7.00;100.00;95389.59;5074887;28;20487;-60
2023/01/15 05:57:31;;;;;;;3.47;3.37;;;;;;;7.13;100.00;95397.09;5075243;28;20188;-59
2023/01/15 05:59:57;;;;;;;4.03;3.80;;;;;;;6.88;100.00;95402.72;5072655;28;20240;-60
2023/01/15 06:02:23;;;;;;;3.40;3.23;;;;;;;6.85;100.00;95402.41;5074771;28;20542;-61
2023/01/15 06:04:48;;;;;;;3.80;3.70;;;;;;;6.81;100.00;95407.28;5075086;28;20244;-59
2023/01/15 06:07:16;;;;;;;3.60;3.50;;;;;;;6.68;100.00;95415.41;5074919;28;20162;-60
2023/01/15 06:09:41;;;;;;;3.40;3.30;;;;;;;6.65;100.00;95395.03;5075170;28;20338;-59
2023/01/15 06:12:07;;;;;;;4.23;4.13;;;;;;;6.48;100.00;95415.06;5074423;28;20249;-60
2023/01/15 06:14:32;;;;;;;2.97;2.87;;;;;;;6.46;100.00;95414.53;5074011;28;20326;-62
2023/01/15 06:16:58;;;;;;;4.90;4.70;;;;;;;6.43;100.00;95413.16;5074365;28;20529;-61
2023/01/15 06:19:23;;;;;;;3.33;3.23;;;;;;;6.42;100.00;95414.19;5074664;28;20173;-62
2023/01/15 06:21:49;;;;;;;3.20;3.10;;;;;;;6.40;100.00;95426.66;5074224;28;20204;-61
2023/01/15 06:24:16;;;;;;;3.03;2.93;;;;;;;6.37;100.00;95429.72;5074467;28;20193;-60
2023/01/15 06:26:41;;;;;;;3.20;3.10;;;;;;;6.37;100.00;95432.31;5073998;28;20181;-63
2023/01/15 06:29:07;;;;;;;3.43;3.33;;;;;;;6.24;100.00;95432.59;5074133;28;20181;-62
2023/01/15 06:31:32;;;;;;;7.13;6.70;;;;;;;6.10;100.00;95429.47;5074256;28;20205;-61
2023/01/15 06:33:58;;;;;;;2.73;2.63;;;;;;;6.21;100.00;95446.84;5074398;28;20290;-62
2023/01/15 06:36:25;;;;;;;3.23;3.13;;;;;;;6.20;100.00;95439.28;5074174;28;20173;-62
2023/01/15 06:38:51;;;;;;;2.87;2.77;;;;;;;6.11;100.00;95445.88;5074169;28;20177;-62
2023/01/15 06:49:34;;;;;;;2.47;2.47;;;;;;;5.90;100.00;95477.72;5074083;28;20228;-61
2023/01/15 06:51:59;;;;;;;3.07;2.97;;;;;;;5.86;100.00;95488.53;5073691;28;20700;-61
2023/01/15 06:54:25;;;;;;;3.87;3.77;;;;;;;5.69;100.00;95486.84;5073711;28;20205;-61
2023/01/15 06:56:51;;;;;;;3.70;3.53;;;;;;;5.79;100.00;95484.47;5073770;28;20555;-60
2023/01/15 06:59:17;;;;;;;3.40;3.30;;;;;;;5.67;100.00;95489.69;5071098;28;20257;-60
2023/01/15 07:01:43;;;;;;;3.77;3.67;;;;;;;5.61;100.00;95489.81;5072703;28;20212;-59
2023/01/15 07:04:08;;;;;;;2.83;2.77;;;;;;;5.55;100.00;95493.31;5073699;28;20201;-59
2023/01/15 07:06:34;;;;;;;3.27;3.17;;;;;;;5.44;100.00;95516.47;5073850;28;20209;-60
2023/01/15 07:08:59;;;;;;;3.80;3.70;;;;;;;5.46;100.00;95537.03;5073376;28;20231;-61
2023/01/15 07:11:24;;;;;;;2.97;2.87;;;;;;;5.50;100.00;95527.78;5073419;28;20262;-61
2023/01/15 07:13:50;;;;;;;3.03;2.93;;;;;;;5.51;100.00;95544.16;5073432;28;20169;-61
2023/01/15 07:16:27;;;;;;;3.83;3.73;;;;;;;5.30;100.00;95548.84;5073380;28;20256;-61
2023/01/15 07:18:56;;;;;;;9.60;9.10;;;;;;;5.24;100.00;95557.53;5073418;28;20173;-62
2023/01/15 07:21:22;;;;;;;7.13;6.40;;;;;;;5.08;100.00;95549.59;5055409;28;20187;-62
2023/01/15 07:23:47;;;;;;;7.50;7.13;;;;;;;5.00;100.00;95564.50;5073240;28;20193;-62
2023/01/15 07:26:13;;;;;;;2.40;2.40;;;;;;;5.02;100.00;95569.44;5072567;28;21771;-62
2023/01/15 07:28:38;;;;;;;2.33;2.33;;;;;;;5.04;100.00;95577.81;5073144;28;20268;-62
2023/01/15 07:31:04;;;;;;;4.23;4.13;;;;;;;5.06;100.00;95580.22;5073054;28;20255;-63
2023/01/15 07:33:29;;;;;;;3.40;3.30;;;;;;;4.94;100.00;95580.16;5073181;28;20231;-61
2023/01/15 07:35:55;;;;;;;8.83;8.20;;;;;;;4.78;100.00;95589.38;5072635;28;20172;-61
2023/01/15 07:38:21;;;;;;;4.23;4.03;;;;;;;4.87;100.00;95576.88;5072076;28;20211;-61
2023/01/15 07:49:44;;;;;;;3.80;3.70;;;;;;;4.71;100.00;95593.84;5072833;28;20181;-62
2023/01/15 07:51:45;;;;;;;4.07;3.97;;;;;;;4.65;100.00;95599.13;5072623;28;20212;-61
2023/01/15 07:54:26;;;;;;;3.57;3.47;;;;;;;4.75;100.00;95623.53;5070939;28;20546;-61
2023/01/15 07:57:02;;;;;;;4.53;4.40;;;;;;;4.60;100.00;95623.13;5053166;28;20184;-62
2023/01/15 07:59:29;;;;;;;3.93;3.83;;;;;;;4.59;100.00;95634.50;5070202;28;20715;-60
2023/01/15 08:01:55;;;;;;;3.57;3.47;;;;;;;4.60;100.00;95655.06;5073314;28;20193;-56
2023/01/15 08:04:20;;;;;;;4.37;4.20;;;;;;;4.46;100.00;95652.81;5073349;28;20683;-60
2023/01/15 08:06:45;;;;;;;4.23;4.13;;;;;;;4.61;100.00;95653.25;5072585;28;20564;-61
2023/01/15 08:09:11;;;;;;;5.27;5.07;;;;;;;4.54;100.00;95648.13;5072804;28;20166;-61
2023/01/15 08:17:04;;;;;;;3.77;3.67;;;;;;;4.80;100.00;95683.38;5072884;28;20164;-59
2023/01/15 08:19:30;;;;;;;12.40;11.70;;;;;;;4.83;100.00;95680.34;5073189;28;20610;-60
2023/01/15 08:21:56;;;;;;;8.30;7.97;;;;;;;4.79;100.00;95674.00;5073261;28;20189;-60
2023/01/15 08:24:22;;;;;;;9.50;9.00;;;;;;;4.79;100.00;95683.59;5072369;28;20276;-61
2023/01/15 08:26:47;;;;;;;7.37;7.07;;;;;;;4.73;100.00;95689.66;5072616;28;20162;-61
2023/01/15 08:29:13;;;;;;;3.27;3.17;;;;;;;4.59;100.00;95674.22;5072655;28;20636;-61
2023/01/15 08:31:40;;;;;;;3.70;3.50;;;;;;;4.66;100.00;95681.94;5072842;28;20240;-61
2023/01/15 08:34:07;;;;;;;3.23;3.13;;;;;;;4.63;100.00;95691.94;5072681;28;20174;-60
2023/01/15 08:36:32;;;;;;;3.00;2.90;;;;;;;4.64;100.00;95703.91;5072881;28;20188;-60
2023/01/15 08:38:57;;;;;;;3.30;3.20;;;;;;;4.78;100.00;95711.38;5072318;28;20196;-61
2023/01/15 08:41:23;;;;;;;3.13;3.03;;;;;;;4.74;100.00;95712.00;5072554;28;20617;-60
2023/01/15 08:43:48;;;;;;;3.70;3.50;;;;;;;4.89;100.00;95722.81;5072131;28;20204;-61
2023/01/15 08:46:14;;;;;;;3.20;3.10;;;;;;;4.92;100.00;95730.97;5072498;28;20177;-59
2023/01/15 08:48:39;;;;;;;3.13;3.03;;;;;;;5.03;100.00;95739.81;5070889;28;20204;-60
2023/01/15 08:51:07;;;;;;;3.80;3.70;;;;;;;5.02;100.00;95754.59;5072343;28;20640;-57
2023/01/15 08:53:33;;;;;;;3.87;3.77;;;;;;;5.02;100.00;95766.78;5064146;28;20313;-60
2023/01/15 08:55:59;;;;;;;4.37;4.17;;;;;;;5.07;100.00;95753.19;5072726;28;20207;-61
2023/01/15 08:58:32;;;;;;;5.17;4.87;;;;;;;5.01;100.00;95768.59;5070870;28;20239;-57
2023/01/15 09:01:06;;;;;;;5.23;4.93;;;;;;;5.13;100.00;95766.06;5050613;28;20204;-60
2023/01/15 09:03:32;;;;;;;4.70;4.50;;;;;;;5.14;100.00;95777.25;5052403;28;20293;-60
2023/01/15 09:05:58;;;;;;;5.10;4.80;;;;;;;5.21;100.00;95776.19;5052751;28;20159;-62
2023/01/15 09:08:24;;;;;;;4.37;4.17;;;;;;;5.18;100.00;95774.03;5052680;28;20623;-62
2023/01/15 09:10:50;;;;;;;3.90;3.73;;;;;;;5.17;100.00;95790.63;5072249;28;20153;-59
2023/01/15 09:13:15;;;;;;;3.63;3.53;;;;;;;5.21;100.00;95778.78;5072263;28;20235;-60
2023/01/15 09:15:41;;;;;;;3.77;3.50;;;;;;;5.26;100.00;95781.50;5072385;28;20195;-60
2023/01/15 09:18:09;;;;;;;4.33;4.13;;;;;;;5.29;100.00;95778.50;5072149;28;20558;-62
2023/01/15 09:20:35;;;;;;;3.90;3.70;;;;;;;5.31;100.00;95788.66;5072188;28;20563;-61
2023/01/15 09:23:00;;;;;;;3.27;3.17;;;;;;;5.31;100.00;95779.06;5072160;28;20193;-61
2023/01/15 09:25:26;;;;;;;4.03;3.73;;;;;;;5.35;100.00;95782.78;5075979;28;20158;-61
2023/01/15 09:27:55;;;;;;;3.27;3.17;;;;;;;5.44;100.00;95784.09;5076046;28;20249;-63
2023/01/15 09:30:21;;;;;;;3.40;3.20;;;;;;;5.51;100.00;95791.03;5075825;28;20200;-61
2023/01/15 09:32:47;;;;;;;3.10;3.00;;;;;;;5.38;100.00;95797.97;5075801;28;20668;-62
2023/01/15 09:35:13;;;;;;;3.33;3.23;;;;;;;5.45;100.00;95803.09;5075652;28;20173;-60
2023/01/15 09:37:38;;;;;;;3.07;2.97;;;;;;;5.47;100.00;95814.03;5075541;28;20181;-61
2023/01/15 09:40:07;;;;;;;3.40;3.30;;;;;;;5.44;100.00;95823.06;5075301;28;20664;-61
2023/01/15 09:42:55;;;;;;;3.73;3.57;;;;;;;5.55;100.00;95824.16;5075317;28;20197;-58
2023/01/15 09:45:36;;;;;;;3.50;3.40;;;;;;;5.52;100.00;95821.97;5074960;28;20179;-58
2023/01/15 09:48:16;;;;;;;3.87;3.67;;;;;;;5.59;100.00;95824.50;5074548;28;20287;-61
2023/01/15 09:50:50;;;;;;;3.63;3.43;;;;;;;5.58;100.00;95833.28;5075064;28;20177;-59
2023/01/15 09:53:44;;;;;;;4.37;4.13;;;;;;;5.53;100.00;95831.34;5074629;28;20204;-61
2023/01/15 09:56:24;;;;;;;4.27;4.07;;;;;;;5.48;100.00;95843.41;5075069;28;20182;-57
2023/01/15 09:58:51;;;;;;;3.53;3.33;;;;;;;5.50;100.00;95842.19;5069219;28;20307;-63
2023/01/15 10:01:20;;;;;;;3.73;3.63;;;;;;;5.49;100.00;95825.00;5072916;28;20170;-62
2023/01/15 10:03:50;;;;;;;3.43;3.33;;;;;;;5.46;100.00;95838.47;5070182;28;20219;-61
2023/01/15 10:06:23;;;;;;;3.63;3.43;;;;;;;5.34;100.00;95850.59;5074417;28;20235;-55
2023/01/15 10:08:50;;;;;;;3.57;3.47;;;;;;;5.31;100.00;95851.78;5074142;28;20676;-58
2023/01/15 10:11:16;;;;;;;3.43;3.30;;;;;;;5.22;100.00;95860.91;5074848;28;20558;-61
2023/01/15 10:13:50;;;;;;;3.50;3.40;;;;;;;5.31;100.00;95854.38;5056726;28;20181;-60
2023/01/15 10:16:26;;;;;;;3.33;3.20;;;;;;;5.35;100.00;95845.16;5057006;28;20178;-58
2023/01/15 10:18:52;;;;;;;3.23;3.13;;;;;;;5.28;100.00;95849.63;5054758;28;20181;-55
2023/01/15 10:21:39;;;;;;;3.17;3.07;;;;;;;5.15;100.00;95856.75;5054560;28;20162;-54
2023/01/15 10:24:33;;;;;;;3.50;3.40;;;;;;;5.26;100.00;95866.44;5062152;28;20251;-55
2023/01/15 10:27:04;;;;;;;3.73;3.57;;;;;;;5.11;100.00;95874.59;5074719;28;20675;-58
2023/01/15 10:29:51;;;;;;;3.80;3.60;;;;;;;4.92;100.00;95875.56;5057509;28;20177;-59
2023/01/15 10:32:28;;;;;;;4.13;4.00;;;;;;;4.86;100.00;95886.78;5074714;28;20202;-58
2023/01/15 10:35:07;;;;;;;4.20;4.00;;;;;;;4.81;100.00;95882.25;5072449;28;20259;-61
2023/01/15 10:37:57;;;;;;;3.10;3.00;;;;;;;4.75;100.00;95892.66;5074268;28;20166;-61
2023/01/15 10:40:35;;;;;;;3.50;3.40;;;;;;;4.96;100.00;95890.47;5073669;28;20173;-59
2023/01/15 10:43:05;;;;;;;3.37;3.27;;;;;;;4.69;100.00;95885.72;5074461;28;20677;-59
2023/01/15 10:45:49;;;;;;;3.90;3.80;;;;;;;4.74;100.00;95891.88;5073753;28;20181;-59
2023/01/15 10:48:44;;;;;;;3.80;3.70;;;;;;;4.66;100.00;95891.34;5074063;28;20197;-55
2023/01/15 10:51:17;;;;;;;3.80;3.70;;;;;;;4.81;100.00;95894.41;5048177;28;20193;-56
2023/01/15 10:53:54;;;;;;;3.30;3.20;;;;;;;4.79;100.00;95893.84;5060370;28;20694;-57
2023/01/15 10:56:31;;;;;;;3.33;3.13;;;;;;;4.49;100.00;95904.84;5063008;28;20259;-57
2023/01/15 10:59:10;;;;;;;3.77;3.67;;;;;;;4.35;100.00;95907.72;5046052;28;20298;-59
2023/01/15 11:01:37;;;;;;;4.47;4.27;;;;;;;4.29;100.00;95896.38;5074223;28;20215;-58
2023/01/15 11:04:03;;;;;;;3.23;3.13;;;;;;;4.29;100.00;95904.16;5073708;28;20276;-59
2023/01/15 11:06:30;;;;;;;3.40;3.30;;;;;;;4.25;100.00;95907.38;5073839;28;20253;-56
2023/01/15 11:08:57;;;;;;;3.63;3.53;;;;;;;4.23;100.00;95907.59;5073859;28;20184;-60
2023/01/15 11:19:39;;;;;;;5.80;5.53;;;;;;;3.52;100.00;95917.25;5073954;28;20199;-56
2023/01/15 11:22:16;;;;;;;4.10;3.97;;;;;;;3.49;100.00;95934.00;5073875;28;20203;-58
2023/01/15 11:24:55;;;;;;;7.10;6.80;;;;;;;3.53;100.00;95930.00;5073780;28;20174;-59
2023/01/15 11:27:31;;;;;;;5.87;5.60;;;;;;;3.42;100.00;95945.38;5073367;28;20180;-57
2023/01/15 11:29:59;;;;;;;3.63;3.53;;;;;;;3.51;100.00;95947.53;5073440;28;20192;-58
2023/01/15 11:32:34;;;;;;;3.30;3.20;;;;;;;3.52;100.00;95949.13;5073360;28;20197;-60
2023/01/15 11:35:17;;;;;;;3.50;3.40;;;;;;;3.59;100.00;95956.91;5073511;28;20529;-61
2023/01/15 11:37:43;;;;;;;3.63;3.50;;;;;;;3.66;100.00;95955.09;5070827;28;20656;-60
2023/01/15 11:40:20;;;;;;;3.90;3.80;;;;;;;3.56;100.00;95959.91;5068166;28;20177;-63
2023/01/15 11:51:08;;;;;;;3.47;3.37;;;;;;;3.30;100.00;95981.44;5072160;28;20199;-58
2023/01/15 11:53:45;;;;;;;3.30;3.20;;;;;;;3.49;100.00;95975.47;5073836;28;20197;-62
2023/01/15 11:56:14;;;;;;;3.30;3.20;;;;;;;3.41;100.00;95972.28;5072012;28;20189;-62
2023/01/15 11:58:59;;;;;;;3.60;3.50;;;;;;;3.40;100.00;95975.88;5069522;28;20723;-61
2023/01/15 12:01:49;;;;;;;3.00;2.90;;;;;;;3.27;100.00;95977.47;5072947;28;20205;-60
2023/01/15 12:04:55;;;;;;;3.50;3.20;;;;;;;3.32;100.00;95976.88;5065745;28;20296;-61
2023/01/15 12:07:23;;;;;;;3.57;3.37;;;;;;;3.40;100.00;95981.84;5050964;28;20189;-61
2023/01/15 12:10:09;;;;;;;3.30;3.20;;;;;;;3.39;100.00;95980.25;5073684;28;20212;-62
2023/01/15 12:12:46;;;;;;;3.43;3.33;;;;;;;3.42;100.00;95979.03;5055488;28;20228;-60
2023/01/15 12:15:27;;;;;;;2.97;2.87;;;;;;;3.53;100.00;95988.78;5073469;28;20169;-61
2023/01/15 12:18:14;;;;;;;2.90;2.80;;;;;;;3.48;100.00;95989.41;5073032;28;20169;-58
2023/01/15 12:20:48;;;;;;;3.10;3.00;;;;;;;3.42;100.00;95997.19;5072997;28;20639;-61
2023/01/15 12:23:20;;;;;;;4.20;4.07;;;;;;;3.30;100.00;95994.41;5072974;28;20197;-71
2023/01/15 12:26:00;;;;;;;4.40;4.30;;;;;;;3.40;100.00;95986.25;5072527;28;20173;-59
2023/01/15 12:28:39;;;;;;;4.50;4.20;;;;;;;3.44;100.00;95992.59;5072000;28;20251;-60
2023/01/15 12:31:14;;;;;;;5.73;5.43;;;;;;;3.42;100.00;95994.59;5073314;28;20161;-62
2023/01/15 12:33:52;;;;;;;3.20;3.10;;;;;;;3.43;100.00;95980.66;5073214;28;20160;-63
2023/01/15 12:36:22;;;;;;;2.53;2.53;;;;;;;3.44;100.00;95990.00;5072699;28;20169;-61
2023/01/15 12:39:00;;;;;;;3.83;3.60;;;;;;;3.43;100.00;95980.66;5072481;28;20238;-58